createdAt,value
2022-10-12T00:02:16.306Z,59.04
2022-10-12T00:07:18.895Z,65.44
2022-10-12T00:12:21.273Z,66.07
2022-10-12T00:17:23.696Z,64.15
2022-10-12T00:22:26.295Z,62.83
2022-10-12T00:27:28.697Z,61.78
2022-10-12T00:32:31.253Z,61.16
2022-10-12T00:37:33.778Z,60.92
2022-10-12T00:42:36.203Z,60.49
2022-10-12T00:47:44.804Z,60.52
2022-10-12T00:52:55.786Z,60.36
2022-10-12T00:57:58.852Z,58.00
2022-10-12T01:03:01.921Z,57.23
2022-10-12T01:08:04.464Z,59.44
2022-10-12T01:13:07.465Z,65.55
2022-10-12T01:18:19.039Z,66.56
2022-10-12T01:23:59.494Z,64.29
2022-10-12T01:29:36.965Z,63.00
2022-10-12T01:35:13.744Z,62.23
2022-10-12T01:40:23.910Z,61.43
2022-10-12T01:45:26.465Z,61.37
2022-10-12T01:50:41.557Z,61.06
2022-10-12T01:55:57.237Z,60.58
2022-10-12T02:01:38.717Z,60.40
2022-10-12T02:06:45.063Z,60.33
2022-10-12T02:11:52.535Z,60.39
2022-10-12T02:17:00.395Z,56.95
2022-10-12T02:22:05.971Z,57.76
2022-10-12T02:27:11.071Z,60.05
2022-10-12T02:32:38.489Z,66.71
2022-10-12T02:37:46.435Z,67.70
2022-10-12T02:43:11.131Z,65.31
2022-10-12T02:48:20.537Z,63.66
2022-10-12T02:53:26.209Z,62.57
2022-10-12T02:58:28.688Z,61.77
2022-10-12T03:03:31.135Z,61.49
2022-10-12T03:08:33.958Z,60.70
2022-10-12T03:13:36.769Z,57.83
2022-10-12T03:18:39.839Z,58.42
2022-10-12T03:23:42.310Z,62.94
2022-10-12T03:28:45.286Z,67.83
2022-10-12T03:33:47.960Z,66.43
2022-10-12T03:38:50.351Z,64.31
2022-10-12T03:43:52.852Z,64.86
2022-10-12T03:48:55.355Z,63.11
2022-10-12T03:53:57.817Z,61.34
2022-10-12T03:59:00.281Z,56.93
2022-10-12T04:04:02.767Z,58.16
2022-10-12T04:09:05.255Z,64.10
2022-10-12T04:14:07.701Z,64.18
2022-10-12T04:19:13.450Z,64.75
2022-10-12T04:24:15.903Z,63.41
2022-10-12T04:29:18.353Z,63.95
2022-10-12T04:34:20.778Z,62.78
2022-10-12T04:39:23.770Z,62.63
2022-10-12T04:44:29.808Z,61.77
2022-10-12T04:49:34.559Z,61.84
2022-10-12T04:54:36.944Z,61.96
2022-10-12T04:59:39.352Z,61.40
2022-10-12T05:04:41.848Z,61.56
2022-10-12T05:09:44.300Z,61.65
2022-10-12T05:14:46.841Z,61.23
2022-10-12T05:19:49.237Z,60.78
2022-10-12T05:24:53.969Z,60.75
2022-10-12T05:29:56.572Z,60.52
2022-10-12T05:34:58.996Z,60.23
2022-10-12T05:40:02.991Z,60.20
2022-10-12T05:45:09.342Z,60.16
2022-10-12T05:50:11.826Z,59.77
2022-10-12T05:55:14.622Z,59.54
2022-10-12T06:00:19.265Z,57.60
2022-10-12T06:05:21.752Z,58.36
2022-10-12T06:10:27.738Z,60.90
2022-10-12T06:15:33.061Z,66.70
2022-10-12T06:20:36.246Z,67.36
2022-10-12T06:25:38.907Z,64.37
2022-10-12T06:30:43.368Z,61.00
2022-10-12T06:35:52.136Z,59.70
2022-10-12T06:40:54.879Z,56.55
2022-10-12T06:46:01.893Z,58.31
2022-10-12T06:51:04.686Z,65.40
2022-10-12T06:56:08.735Z,63.42
2022-10-12T07:01:11.327Z,60.50
2022-10-12T07:06:14.985Z,59.83
2022-10-12T07:11:17.407Z,56.86
2022-10-12T07:16:19.951Z,57.69
2022-10-12T07:21:22.709Z,62.74
2022-10-12T07:26:25.169Z,65.32
2022-10-12T07:31:28.762Z,60.77
2022-10-12T07:36:57.524Z,55.99
2022-10-12T07:41:54.403Z,56.86
2022-10-12T07:46:57.142Z,60.94
2022-10-12T07:51:59.711Z,64.63
2022-10-12T07:57:02.154Z,60.57
2022-10-12T08:02:04.829Z,56.85
2022-10-12T08:07:07.264Z,58.68
2022-10-12T08:12:10.817Z,62.57
2022-10-12T08:17:13.284Z,62.67
2022-10-12T08:22:15.775Z,57.57
2022-10-12T08:27:18.222Z,56.28
2022-10-12T08:32:22.096Z,59.72
2022-10-12T08:37:24.740Z,59.45
2022-10-12T08:42:41.192Z,63.58
2022-10-12T08:47:48.813Z,62.44
2022-10-12T08:53:00.134Z,60.09
2022-10-12T08:58:03.463Z,54.73
2022-10-12T09:03:42.743Z,56.34
2022-10-12T09:08:54.504Z,59.00
2022-10-12T09:14:08.659Z,60.01
2022-10-12T09:19:20.619Z,63.79
2022-10-12T09:24:26.705Z,61.84
2022-10-12T09:29:31.293Z,56.10
2022-10-12T09:34:34.747Z,56.85
2022-10-12T09:39:39.522Z,58.01
2022-10-12T09:44:48.268Z,59.62
2022-10-12T09:49:52.420Z,59.96
2022-10-12T09:55:05.273Z,64.43
2022-10-12T10:00:27.192Z,62.57
2022-10-12T10:05:34.786Z,56.80
2022-10-12T10:10:37.418Z,56.12
2022-10-12T10:15:43.420Z,55.51
2022-10-12T10:20:55.004Z,56.78
2022-10-12T10:26:09.400Z,57.60
2022-10-12T10:31:16.332Z,55.80
2022-10-12T10:36:23.214Z,57.44
2022-10-12T10:41:31.429Z,58.14
2022-10-12T10:46:37.525Z,58.95
2022-10-12T10:51:49.407Z,59.59
2022-10-12T10:56:56.702Z,59.20
2022-10-12T11:02:09.701Z,58.75
2022-10-12T11:07:51.502Z,58.37
2022-10-12T11:13:03.291Z,56.86
2022-10-12T11:18:20.979Z,55.62
2022-10-12T11:23:29.543Z,56.24
2022-10-12T11:28:34.357Z,57.00
2022-10-12T11:33:40.995Z,57.02
2022-10-12T11:38:48.360Z,57.60
2022-10-12T11:44:17.922Z,57.90
2022-10-12T11:49:31.327Z,58.52
2022-10-12T11:54:41.745Z,58.83
2022-10-12T11:59:47.954Z,58.45
2022-10-12T12:04:51.781Z,58.09
2022-10-12T12:09:54.848Z,57.73
2022-10-12T12:15:18.649Z,57.63
2022-10-12T12:20:43.086Z,55.59
2022-10-12T12:25:45.653Z,56.06
2022-10-12T12:31:07.038Z,56.26
2022-10-12T12:36:12.757Z,55.58
2022-10-12T12:41:34.433Z,56.22
2022-10-12T12:46:55.443Z,55.94
2022-10-12T12:51:58.054Z,54.92
2022-10-12T12:57:18.580Z,55.88
2022-10-12T13:02:53.585Z,56.02
2022-10-12T13:08:15.021Z,55.81
2022-10-12T13:13:39.288Z,54.40
2022-10-12T13:19:03.890Z,54.90
2022-10-12T13:24:33.449Z,54.69
2022-10-12T13:29:45.658Z,54.89
2022-10-12T13:34:54.835Z,55.48
2022-10-12T13:39:57.282Z,55.80
2022-10-12T13:45:03.304Z,56.32
2022-10-12T13:50:18.290Z,56.90
2022-10-12T13:55:26.621Z,57.53
2022-10-12T14:00:30.243Z,58.19
2022-10-12T14:05:33.649Z,58.49
2022-10-12T14:10:38.059Z,58.88
2022-10-12T14:15:41.400Z,59.17
2022-10-12T14:20:43.978Z,59.51
2022-10-12T14:25:55.317Z,59.91
2022-10-12T14:30:58.275Z,60.06
2022-10-12T14:36:27.192Z,60.40
2022-10-12T14:41:44.228Z,60.60
2022-10-12T14:47:10.752Z,60.90
2022-10-12T14:52:20.744Z,61.24
2022-10-12T14:57:24.907Z,61.65
2022-10-12T15:02:29.966Z,66.06
2022-10-12T15:07:34.039Z,65.49
2022-10-12T15:12:37.162Z,62.07
2022-10-12T15:17:39.586Z,57.03
2022-10-12T15:22:42.094Z,56.60
2022-10-12T15:27:44.678Z,57.62
2022-10-12T15:32:47.799Z,58.48
2022-10-12T15:37:51.229Z,59.19
2022-10-12T15:42:53.847Z,59.89
2022-10-12T15:47:56.337Z,60.59
2022-10-12T15:53:02.032Z,61.28
2022-10-12T15:58:04.683Z,66.29
2022-10-12T16:03:07.234Z,68.01
2022-10-12T16:08:09.837Z,62.46
2022-10-12T16:13:13.705Z,58.16
2022-10-12T16:18:16.616Z,57.27
2022-10-12T16:23:24.712Z,58.89
2022-10-12T16:28:29.773Z,60.22
2022-10-12T16:33:32.288Z,65.39
2022-10-12T16:38:36.240Z,65.94
2022-10-12T16:43:39.138Z,63.43
2022-10-12T16:48:41.540Z,61.09
2022-10-12T16:53:44.295Z,57.49
2022-10-12T16:58:48.318Z,57.88
2022-10-12T17:03:54.737Z,59.19
2022-10-12T17:09:01.095Z,60.31
2022-10-12T17:14:08.580Z,65.76
2022-10-12T17:19:16.823Z,66.39
2022-10-12T17:24:24.537Z,63.39
2022-10-12T17:29:31.899Z,61.60
2022-10-12T17:34:40.984Z,60.14
2022-10-12T17:39:47.830Z,57.00
2022-10-12T17:44:50.821Z,57.73
2022-10-12T17:49:53.414Z,59.09
2022-10-12T17:54:55.859Z,60.86
2022-10-12T17:59:58.295Z,66.91
2022-10-12T18:05:00.797Z,67.25
2022-10-12T18:10:04.956Z,65.04
2022-10-12T18:15:09.340Z,63.14
2022-10-12T18:20:12.957Z,61.99
2022-10-12T18:25:15.780Z,61.23
2022-10-12T18:30:18.435Z,60.70
2022-10-12T18:35:21.134Z,59.61
2022-10-12T18:40:23.633Z,56.50
2022-10-12T18:45:26.334Z,57.54
2022-10-12T18:50:28.818Z,59.40
2022-10-12T18:55:32.225Z,60.75
2022-10-12T19:00:34.687Z,66.05
2022-10-12T19:05:37.948Z,65.79
2022-10-12T19:10:41.087Z,62.93
2022-10-12T19:15:43.543Z,61.22
2022-10-12T19:20:46.007Z,60.06
2022-10-12T19:25:49.055Z,57.42
2022-10-12T19:30:54.038Z,58.20
2022-10-12T19:35:56.817Z,60.13
2022-10-12T19:41:01.097Z,64.60
2022-10-12T19:46:08.009Z,64.81
2022-10-12T19:51:14.216Z,63.21
2022-10-12T19:56:20.763Z,62.38
2022-10-12T20:01:27.391Z,61.71
2022-10-12T20:06:32.987Z,61.11
2022-10-12T20:11:35.755Z,60.55
2022-10-12T20:16:38.248Z,60.08
2022-10-12T20:21:40.796Z,57.86
2022-10-12T20:26:43.632Z,58.57
2022-10-12T20:31:46.249Z,60.03
2022-10-12T20:36:48.725Z,64.96
2022-10-12T20:41:51.167Z,65.49
2022-10-12T20:46:53.681Z,63.38
2022-10-12T20:51:56.353Z,61.59
2022-10-12T20:57:00.332Z,60.28
2022-10-12T21:02:05.745Z,57.22
2022-10-12T21:07:08.890Z,58.65
2022-10-12T21:12:11.812Z,60.39
2022-10-12T21:17:15.468Z,65.55
2022-10-12T21:22:18.610Z,66.56
2022-10-12T21:27:21.433Z,64.17
2022-10-12T21:32:23.885Z,62.47
2022-10-12T21:37:28.485Z,60.94
2022-10-12T21:42:30.912Z,60.13
2022-10-12T21:47:33.383Z,57.62
2022-10-12T21:52:36.149Z,58.41
2022-10-12T21:57:41.678Z,60.02
2022-10-12T22:02:44.113Z,64.90
2022-10-12T22:07:47.204Z,66.23
2022-10-12T22:12:49.823Z,64.00
2022-10-12T22:17:52.235Z,62.35
2022-10-12T22:22:54.713Z,61.54
2022-10-12T22:27:57.269Z,60.88
2022-10-12T22:32:59.621Z,60.60
2022-10-12T22:38:02.040Z,60.43
2022-10-12T22:43:04.435Z,60.27
2022-10-12T22:48:06.927Z,59.68
2022-10-12T22:53:09.588Z,57.44
2022-10-12T22:58:12.594Z,58.35
2022-10-12T23:03:15.127Z,60.04
2022-10-12T23:08:17.675Z,65.38
2022-10-12T23:13:20.191Z,66.08
2022-10-12T23:18:22.604Z,64.33
2022-10-12T23:23:25.212Z,62.71
2022-10-12T23:28:28.427Z,61.41
2022-10-12T23:33:31.004Z,60.36
2022-10-12T23:38:34.942Z,59.82
2022-10-12T23:43:37.715Z,59.59
2022-10-12T23:48:40.842Z,56.87
2022-10-12T23:53:43.509Z,57.94
2022-10-12T23:58:47.027Z,59.61
